createdAt,value
2023-02-27T00:00:20.573Z,75.07
2023-02-27T00:03:05.756Z,75.20
2023-02-27T00:05:51.168Z,75.46
2023-02-27T00:08:36.601Z,75.13
2023-02-27T00:11:22.059Z,75.13
2023-02-27T00:14:10.141Z,75.56
2023-02-27T00:16:55.623Z,75.42
2023-02-27T00:19:41.131Z,75.44
2023-02-27T00:22:28.324Z,75.11
2023-02-27T00:25:14.381Z,75.39
2023-02-27T00:28:00.532Z,75.74
2023-02-27T00:30:46.415Z,75.52
2023-02-27T00:33:31.837Z,75.18
2023-02-27T00:36:17.315Z,75.54
2023-02-27T00:39:03.012Z,75.61
2023-02-27T00:41:48.622Z,75.81
2023-02-27T00:44:33.880Z,75.38
2023-02-27T00:47:19.407Z,75.60
2023-02-27T00:50:05.361Z,75.75
2023-02-27T00:52:50.990Z,75.70
2023-02-27T00:55:36.630Z,75.86
2023-02-27T00:58:22.351Z,75.77
2023-02-27T01:01:07.773Z,75.98
2023-02-27T01:03:53.283Z,75.95
2023-02-27T01:06:38.485Z,75.96
2023-02-27T01:09:25.091Z,75.90
2023-02-27T01:12:10.459Z,75.92
2023-02-27T01:14:55.946Z,76.12
2023-02-27T01:17:41.396Z,75.95
2023-02-27T01:20:26.867Z,75.78
2023-02-27T01:23:12.754Z,76.00
2023-02-27T01:25:58.403Z,76.20
2023-02-27T01:28:45.778Z,75.94
2023-02-27T01:31:31.299Z,75.98
2023-02-27T01:34:16.891Z,76.13
2023-02-27T01:37:02.886Z,76.20
2023-02-27T01:39:48.898Z,75.67
2023-02-27T01:42:34.410Z,75.87
2023-02-27T01:45:27.365Z,75.70
2023-02-27T01:48:31.960Z,75.79
2023-02-27T01:51:20.744Z,75.70
2023-02-27T01:54:09.132Z,75.83
2023-02-27T01:56:54.974Z,75.93
2023-02-27T01:59:43.818Z,76.03
2023-02-27T02:02:37.490Z,75.88
2023-02-27T02:05:23.523Z,75.96
2023-02-27T02:08:11.834Z,76.10
2023-02-27T02:10:59.258Z,75.89
2023-02-27T02:13:44.940Z,75.86
2023-02-27T02:16:39.475Z,75.64
2023-02-27T02:19:30.974Z,75.89
2023-02-27T02:22:38.808Z,75.78
2023-02-27T02:25:36.526Z,75.62
2023-02-27T02:28:59.363Z,75.64
2023-02-27T02:32:24.305Z,76.04
2023-02-27T02:35:36.021Z,75.85
2023-02-27T02:38:47.656Z,75.98
2023-02-27T02:41:42.332Z,75.66
2023-02-27T02:44:46.483Z,75.74
2023-02-27T02:47:59.374Z,75.57
2023-02-27T02:51:04.605Z,75.74
2023-02-27T02:54:08.387Z,75.62
2023-02-27T02:57:03.046Z,75.84
2023-02-27T03:00:06.380Z,75.57
2023-02-27T03:02:59.341Z,75.32
2023-02-27T03:05:54.845Z,75.92
2023-02-27T03:08:50.077Z,75.69
2023-02-27T03:11:40.208Z,76.03
2023-02-27T03:14:37.445Z,76.08
2023-02-27T03:17:28.510Z,75.82
2023-02-27T03:20:29.565Z,75.86
2023-02-27T03:23:35.007Z,75.96
2023-02-27T03:26:27.747Z,76.11
2023-02-27T03:29:20.180Z,75.80
2023-02-27T03:32:17.539Z,76.08
2023-02-27T03:35:05.629Z,75.89
2023-02-27T03:38:06.450Z,75.89
2023-02-27T03:41:00.659Z,75.94
2023-02-27T03:44:25.240Z,75.93
2023-02-27T03:47:11.022Z,75.96
2023-02-27T03:49:56.949Z,76.13
2023-02-27T03:52:43.049Z,76.13
2023-02-27T03:55:34.095Z,75.85
2023-02-27T03:58:21.088Z,76.08
2023-02-27T04:01:06.976Z,76.36
2023-02-27T04:04:04.196Z,76.06
2023-02-27T04:07:44.291Z,76.09
2023-02-27T04:10:53.456Z,76.19
2023-02-27T04:13:53.875Z,76.43
2023-02-27T04:16:59.649Z,76.33
2023-02-27T04:20:01.799Z,76.33
2023-02-27T04:22:54.986Z,76.35
2023-02-27T04:26:02.034Z,76.43
2023-02-27T04:29:04.196Z,76.35
2023-02-27T04:32:13.327Z,76.51
2023-02-27T04:35:03.100Z,76.42
2023-02-27T04:38:16.302Z,76.33
2023-02-27T04:41:08.777Z,76.59
2023-02-27T04:43:55.509Z,76.59
2023-02-27T04:46:43.857Z,76.33
2023-02-27T04:49:35.745Z,76.61
2023-02-27T04:52:44.755Z,76.76
2023-02-27T04:55:39.706Z,77.09
2023-02-27T04:58:37.294Z,76.91
2023-02-27T05:01:30.092Z,77.05
2023-02-27T05:04:23.888Z,77.09
2023-02-27T05:07:17.280Z,77.01
2023-02-27T05:10:10.419Z,77.03
2023-02-27T05:13:09.447Z,77.30
2023-02-27T05:16:04.172Z,77.50
2023-02-27T05:18:50.158Z,77.45
2023-02-27T05:21:42.229Z,77.90
2023-02-27T05:24:47.932Z,77.39
2023-02-27T05:27:42.634Z,77.47
2023-02-27T05:30:36.476Z,77.49
2023-02-27T05:33:33.371Z,77.25
2023-02-27T05:36:25.092Z,77.13
2023-02-27T05:39:11.948Z,77.25
2023-02-27T05:42:04.118Z,77.48
2023-02-27T05:44:59.528Z,77.74
2023-02-27T05:47:52.705Z,77.52
2023-02-27T05:50:40.007Z,77.90
2023-02-27T05:53:32.045Z,77.79
2023-02-27T05:56:21.359Z,77.71
2023-02-27T05:59:32.494Z,77.82
2023-02-27T06:02:17.968Z,78.02
2023-02-27T06:05:03.564Z,78.30
2023-02-27T06:07:49.401Z,78.36
2023-02-27T06:10:34.777Z,78.62
2023-02-27T06:13:20.159Z,78.62
2023-02-27T06:16:07.129Z,78.45
2023-02-27T06:18:52.376Z,78.97
2023-02-27T06:21:37.538Z,78.39
2023-02-27T06:24:23.228Z,78.44
2023-02-27T06:27:08.750Z,78.33
2023-02-27T06:29:54.695Z,78.36
2023-02-27T06:32:40.465Z,78.58
2023-02-27T06:35:25.964Z,78.09
2023-02-27T06:38:11.175Z,78.03
2023-02-27T06:40:56.577Z,77.98
2023-02-27T06:43:41.931Z,77.89
2023-02-27T06:46:27.734Z,77.86
2023-02-27T06:49:13.869Z,77.76
2023-02-27T06:52:02.031Z,77.82
2023-02-27T06:54:47.510Z,77.59
2023-02-27T06:57:33.070Z,77.62
2023-02-27T07:00:19.661Z,77.52
2023-02-27T07:03:05.348Z,77.58
2023-02-27T07:05:50.744Z,77.51
2023-02-27T07:08:36.058Z,77.35
2023-02-27T07:11:21.592Z,77.63
2023-02-27T07:14:06.880Z,77.37
2023-02-27T07:16:54.946Z,77.93
2023-02-27T07:19:40.685Z,77.68
2023-02-27T07:22:26.116Z,77.63
2023-02-27T07:25:11.956Z,78.28
2023-02-27T07:27:57.529Z,77.87
2023-02-27T07:30:43.609Z,77.87
2023-02-27T07:33:29.467Z,77.81
2023-02-27T07:36:14.715Z,77.95
2023-02-27T07:39:00.148Z,77.78
2023-02-27T07:41:45.656Z,77.85
2023-02-27T07:44:35.676Z,77.26
2023-02-27T07:47:21.234Z,77.32
2023-02-27T07:50:07.155Z,77.29
2023-02-27T07:52:53.117Z,77.08
2023-02-27T07:55:38.632Z,77.08
2023-02-27T07:58:24.161Z,77.02
2023-02-27T08:01:12.153Z,76.87
2023-02-27T08:03:57.700Z,76.77
2023-02-27T08:06:42.854Z,76.88
2023-02-27T08:09:28.416Z,76.75
2023-02-27T08:12:13.844Z,76.48
2023-02-27T08:14:59.242Z,76.73
2023-02-27T08:17:48.244Z,76.61
2023-02-27T08:20:33.745Z,76.53
2023-02-27T08:23:19.026Z,76.65
2023-02-27T08:26:04.626Z,76.55
2023-02-27T08:28:50.222Z,76.30
2023-02-27T08:31:36.018Z,76.42
2023-02-27T08:34:21.804Z,76.21
2023-02-27T08:37:07.124Z,76.34
2023-02-27T08:39:52.584Z,75.81
2023-02-27T08:42:38.341Z,75.80
2023-02-27T08:45:23.981Z,75.73
2023-02-27T08:48:10.435Z,75.69
2023-02-27T08:50:57.838Z,75.92
2023-02-27T08:53:43.733Z,75.96
2023-02-27T08:56:29.454Z,75.75
2023-02-27T08:59:16.045Z,75.59
2023-02-27T09:02:01.667Z,75.01
2023-02-27T09:04:46.903Z,74.94
2023-02-27T09:07:36.884Z,74.78
2023-02-27T09:10:22.714Z,74.45
2023-02-27T09:13:08.014Z,73.93
2023-02-27T09:15:54.294Z,73.12
2023-02-27T09:18:39.852Z,72.86
2023-02-27T09:21:25.469Z,72.28
2023-02-27T09:24:19.932Z,72.81
2023-02-27T09:27:06.431Z,72.71
2023-02-27T09:29:56.371Z,72.07
2023-02-27T09:32:42.608Z,71.85
2023-02-27T09:35:28.140Z,71.63
2023-02-27T09:38:13.846Z,71.43
2023-02-27T09:40:59.635Z,71.41
2023-02-27T09:43:49.158Z,70.59
2023-02-27T09:46:34.495Z,69.82
2023-02-27T09:49:22.264Z,70.02
2023-02-27T09:52:13.510Z,69.86
2023-02-27T09:54:59.414Z,68.84
2023-02-27T09:57:56.338Z,69.66
2023-02-27T10:00:49.072Z,68.30
2023-02-27T10:03:41.676Z,68.87
2023-02-27T10:06:43.824Z,68.55
2023-02-27T10:09:52.669Z,68.44
2023-02-27T10:13:03.472Z,68.11
2023-02-27T10:15:51.752Z,68.43
2023-02-27T10:18:59.460Z,68.30
2023-02-27T10:21:48.664Z,67.97
2023-02-27T10:24:51.178Z,66.89
2023-02-27T10:27:37.963Z,66.83
2023-02-27T10:30:30.049Z,66.87
2023-02-27T10:33:36.860Z,66.67
2023-02-27T10:36:33.628Z,66.34
2023-02-27T10:39:21.174Z,65.78
2023-02-27T10:42:10.826Z,66.26
2023-02-27T10:44:56.408Z,66.34
2023-02-27T10:47:43.184Z,66.72
2023-02-27T10:50:32.250Z,65.45
2023-02-27T10:53:25.265Z,65.58
2023-02-27T10:56:16.497Z,65.01
2023-02-27T10:59:08.170Z,65.10
2023-02-27T11:02:01.327Z,65.50
2023-02-27T11:04:55.662Z,65.72
2023-02-27T11:07:41.192Z,65.24
2023-02-27T11:10:29.032Z,64.71
2023-02-27T11:13:24.697Z,65.57
2023-02-27T11:16:16.775Z,65.31
2023-02-27T11:19:35.871Z,65.26
2023-02-27T11:22:24.539Z,64.77
2023-02-27T11:25:26.191Z,64.25
2023-02-27T11:28:28.616Z,64.73
2023-02-27T11:31:22.463Z,64.58
2023-02-27T11:34:08.416Z,64.44
2023-02-27T11:37:26.316Z,63.86
2023-02-27T11:40:14.671Z,63.60
2023-02-27T11:43:47.234Z,64.12
2023-02-27T11:46:46.411Z,64.58
2023-02-27T11:49:37.198Z,64.40
2023-02-27T11:52:34.199Z,64.46
2023-02-27T11:55:28.028Z,64.36
2023-02-27T11:58:19.026Z,64.66
2023-02-27T12:01:08.591Z,65.26
2023-02-27T12:04:10.107Z,65.06
2023-02-27T12:07:34.569Z,64.63
2023-02-27T12:10:28.585Z,64.14
2023-02-27T12:13:19.550Z,64.37
2023-02-27T12:16:25.034Z,65.10
2023-02-27T12:20:04.697Z,65.16
2023-02-27T12:22:53.770Z,64.39
2023-02-27T12:25:52.521Z,64.77
2023-02-27T12:29:02.240Z,64.51
2023-02-27T12:31:54.428Z,64.87
2023-02-27T12:34:49.810Z,64.85
2023-02-27T12:37:38.041Z,64.95
2023-02-27T12:40:35.876Z,64.68
2023-02-27T12:43:40.571Z,64.50
2023-02-27T12:46:40.725Z,63.32
2023-02-27T12:49:52.992Z,63.89
2023-02-27T12:52:56.908Z,63.60
2023-02-27T12:56:04.280Z,63.79
2023-02-27T12:59:08.079Z,63.58
2023-02-27T13:02:14.343Z,63.74
2023-02-27T13:05:24.158Z,63.84
2023-02-27T13:08:39.852Z,63.77
2023-02-27T13:12:02.192Z,64.04
2023-02-27T13:15:00.000Z,63.71
2023-02-27T13:18:08.269Z,63.50
2023-02-27T13:20:59.548Z,63.33
2023-02-27T13:24:02.761Z,63.80
2023-02-27T13:26:57.825Z,63.58
2023-02-27T13:29:52.553Z,63.42
2023-02-27T13:32:48.942Z,63.60
2023-02-27T13:35:58.335Z,62.51
2023-02-27T13:38:48.248Z,62.45
2023-02-27T13:41:38.595Z,62.76
2023-02-27T13:44:24.175Z,62.36
2023-02-27T13:47:38.369Z,62.25
2023-02-27T13:50:26.917Z,61.46
2023-02-27T13:53:17.723Z,61.70
2023-02-27T13:56:21.947Z,61.70
2023-02-27T13:59:35.133Z,60.95
2023-02-27T14:02:30.924Z,61.41
2023-02-27T14:05:17.251Z,61.10
2023-02-27T14:08:11.900Z,60.93
2023-02-27T14:11:17.777Z,61.13
2023-02-27T14:14:04.231Z,61.58
2023-02-27T14:16:51.031Z,60.94
2023-02-27T14:19:42.643Z,59.46
2023-02-27T14:22:44.079Z,60.51
2023-02-27T14:26:18.023Z,60.71
2023-02-27T14:29:04.389Z,61.11
2023-02-27T14:31:53.135Z,60.51
2023-02-27T14:34:40.756Z,61.84
2023-02-27T14:37:27.607Z,61.10
2023-02-27T14:40:29.673Z,60.96
2023-02-27T14:43:56.747Z,61.06
2023-02-27T14:46:42.484Z,61.44
2023-02-27T14:49:35.537Z,61.34
2023-02-27T14:52:23.563Z,61.47
2023-02-27T14:55:29.826Z,61.67
2023-02-27T14:58:18.477Z,61.53
2023-02-27T15:01:09.856Z,61.28
2023-02-27T15:03:59.227Z,61.36
2023-02-27T15:06:48.947Z,61.42
2023-02-27T15:09:44.678Z,61.43
2023-02-27T15:12:31.230Z,60.38
2023-02-27T15:15:21.888Z,61.00
2023-02-27T15:18:15.138Z,62.27
2023-02-27T15:21:00.281Z,61.62
2023-02-27T15:24:04.103Z,61.27
2023-02-27T15:26:54.561Z,61.28
2023-02-27T15:29:48.093Z,61.22
2023-02-27T15:32:36.343Z,61.63
2023-02-27T15:35:26.898Z,62.32
2023-02-27T15:38:24.499Z,59.86
2023-02-27T15:41:13.681Z,60.63
2023-02-27T15:43:59.419Z,60.26
2023-02-27T15:46:46.540Z,60.33
2023-02-27T15:49:32.052Z,60.40
2023-02-27T15:52:26.591Z,60.63
2023-02-27T15:55:24.603Z,60.58
2023-02-27T15:58:19.403Z,61.35
2023-02-27T16:01:09.354Z,61.33
2023-02-27T16:04:14.337Z,61.14
2023-02-27T16:07:05.511Z,60.94
2023-02-27T16:10:02.920Z,61.37
2023-02-27T16:12:48.235Z,61.69
2023-02-27T16:15:36.381Z,62.07
2023-02-27T16:18:46.026Z,61.69
2023-02-27T16:21:31.416Z,61.52
2023-02-27T16:24:21.942Z,61.56
2023-02-27T16:27:25.635Z,61.93
2023-02-27T16:30:12.606Z,61.82
2023-02-27T16:33:01.935Z,61.44
2023-02-27T16:35:47.811Z,61.65
2023-02-27T16:38:33.469Z,61.79
2023-02-27T16:41:21.394Z,61.60
2023-02-27T16:44:06.816Z,61.67
2023-02-27T16:46:56.642Z,62.22
2023-02-27T16:49:44.367Z,61.97
2023-02-27T16:52:29.961Z,62.21
2023-02-27T16:55:15.447Z,62.57
2023-02-27T16:58:00.829Z,62.26
2023-02-27T17:00:49.197Z,62.50
2023-02-27T17:03:34.954Z,62.72
2023-02-27T17:06:20.565Z,62.66
2023-02-27T17:09:05.915Z,62.79
2023-02-27T17:11:51.185Z,62.96
2023-02-27T17:14:36.555Z,63.02
2023-02-27T17:17:21.993Z,63.14
2023-02-27T17:20:08.360Z,63.13
2023-02-27T17:22:53.669Z,62.95
2023-02-27T17:25:40.730Z,62.93
2023-02-27T17:28:26.215Z,62.99
2023-02-27T17:31:15.227Z,62.71
2023-02-27T17:34:01.200Z,63.13
2023-02-27T17:36:48.381Z,63.27
2023-02-27T17:39:34.226Z,62.97
2023-02-27T17:42:19.737Z,63.27
2023-02-27T17:45:06.929Z,63.22
2023-02-27T17:47:52.312Z,63.09
2023-02-27T17:50:37.702Z,62.89
2023-02-27T17:53:23.098Z,63.72
2023-02-27T17:56:09.440Z,63.36
2023-02-27T17:58:55.103Z,63.84
2023-02-27T18:01:40.504Z,63.95
2023-02-27T18:04:25.940Z,63.78
2023-02-27T18:07:11.212Z,64.72
2023-02-27T18:09:56.700Z,64.86
2023-02-27T18:12:42.297Z,64.96
2023-02-27T18:15:27.998Z,65.57
2023-02-27T18:18:16.310Z,65.53
2023-02-27T18:21:08.323Z,65.80
2023-02-27T18:23:54.717Z,65.71
2023-02-27T18:26:40.231Z,65.75
2023-02-27T18:29:26.222Z,66.08
2023-02-27T18:32:12.932Z,65.90
2023-02-27T18:34:58.578Z,66.36
2023-02-27T18:37:43.873Z,66.85
2023-02-27T18:40:29.730Z,66.85
2023-02-27T18:43:15.247Z,67.05
2023-02-27T18:46:00.984Z,67.07
2023-02-27T18:48:46.593Z,67.37
2023-02-27T18:51:32.302Z,67.85
2023-02-27T18:54:17.740Z,67.68
2023-02-27T18:57:03.408Z,67.75
2023-02-27T18:59:49.230Z,67.85
2023-02-27T19:02:37.224Z,68.11
2023-02-27T19:05:22.681Z,67.80
2023-02-27T19:08:08.003Z,67.97
2023-02-27T19:10:53.559Z,68.34
2023-02-27T19:13:39.046Z,68.65
2023-02-27T19:16:24.601Z,68.49
2023-02-27T19:19:10.926Z,68.59
2023-02-27T19:21:56.637Z,68.49
2023-02-27T19:24:42.246Z,68.82
2023-02-27T19:27:27.743Z,68.53
2023-02-27T19:30:14.929Z,68.87
2023-02-27T19:33:00.877Z,69.15
2023-02-27T19:35:46.275Z,68.93
2023-02-27T19:38:31.532Z,69.29
2023-02-27T19:41:17.809Z,69.45
2023-02-27T19:44:03.544Z,69.25
2023-02-27T19:46:51.823Z,69.43
2023-02-27T19:49:37.762Z,69.49
2023-02-27T19:52:24.368Z,69.34
2023-02-27T19:55:10.393Z,69.58
2023-02-27T19:57:56.323Z,69.76
2023-02-27T20:00:41.974Z,69.95
2023-02-27T20:03:29.332Z,69.57
2023-02-27T20:06:20.294Z,70.06
2023-02-27T20:09:05.916Z,70.09
2023-02-27T20:11:53.904Z,69.97
2023-02-27T20:14:40.151Z,70.05
2023-02-27T20:17:25.672Z,69.75
2023-02-27T20:20:11.826Z,69.91
2023-02-27T20:22:59.008Z,70.04
2023-02-27T20:25:44.098Z,70.06
2023-02-27T20:28:29.680Z,69.84
2023-02-27T20:31:16.775Z,69.99
2023-02-27T20:34:06.036Z,70.23
2023-02-27T20:36:52.733Z,70.70
2023-02-27T20:39:38.327Z,70.08
2023-02-27T20:42:23.740Z,70.10
2023-02-27T20:45:09.396Z,70.11
2023-02-27T20:47:55.689Z,70.38
2023-02-27T20:50:41.653Z,70.64
2023-02-27T20:53:26.950Z,70.69
2023-02-27T20:56:12.376Z,70.43
2023-02-27T20:58:59.745Z,71.15
2023-02-27T21:01:51.602Z,70.60
2023-02-27T21:04:43.181Z,70.90
2023-02-27T21:07:29.078Z,70.72
2023-02-27T21:10:14.294Z,70.87
2023-02-27T21:12:59.690Z,70.85
2023-02-27T21:15:45.707Z,70.81
2023-02-27T21:18:31.642Z,71.12
2023-02-27T21:21:26.481Z,70.73
2023-02-27T21:24:12.329Z,70.75
2023-02-27T21:27:00.029Z,70.70
2023-02-27T21:29:45.675Z,70.56
2023-02-27T21:32:31.109Z,70.80
2023-02-27T21:35:16.626Z,71.04
2023-02-27T21:38:01.828Z,70.62
2023-02-27T21:40:47.451Z,70.96
2023-02-27T21:43:33.939Z,71.11
2023-02-27T21:46:20.826Z,71.02
2023-02-27T21:49:06.770Z,71.15
2023-02-27T21:51:54.304Z,71.47
2023-02-27T21:54:39.656Z,71.43
2023-02-27T21:57:24.927Z,71.78
2023-02-27T22:00:11.517Z,71.52
2023-02-27T22:02:57.057Z,71.64
2023-02-27T22:05:43.842Z,71.30
2023-02-27T22:08:29.134Z,71.14
2023-02-27T22:11:14.748Z,71.54
2023-02-27T22:14:00.296Z,71.35
2023-02-27T22:16:46.180Z,71.48
2023-02-27T22:19:31.568Z,71.77
2023-02-27T22:22:17.073Z,71.59
2023-02-27T22:25:02.665Z,71.49
2023-02-27T22:27:47.845Z,71.75
2023-02-27T22:30:34.369Z,71.57
2023-02-27T22:33:19.982Z,71.77
2023-02-27T22:36:13.602Z,71.69
2023-02-27T22:38:59.695Z,71.76
2023-02-27T22:41:46.232Z,71.88
2023-02-27T22:44:31.368Z,71.90
2023-02-27T22:47:16.935Z,72.00
2023-02-27T22:50:03.818Z,72.01
2023-02-27T22:52:49.273Z,72.00
2023-02-27T22:55:34.602Z,71.88
2023-02-27T22:58:23.676Z,71.88
2023-02-27T23:01:19.085Z,72.07
2023-02-27T23:04:07.660Z,71.79
2023-02-27T23:06:56.142Z,71.87
2023-02-27T23:09:41.922Z,72.15
2023-02-27T23:12:28.217Z,71.73
2023-02-27T23:15:13.655Z,71.85
2023-02-27T23:17:58.946Z,71.84
2023-02-27T23:20:44.334Z,72.08
2023-02-27T23:23:29.710Z,71.60
2023-02-27T23:26:15.975Z,72.17
2023-02-27T23:29:01.711Z,72.18
2023-02-27T23:31:48.154Z,72.02
2023-02-27T23:34:49.151Z,72.11
2023-02-27T23:37:34.866Z,72.08
2023-02-27T23:40:22.290Z,72.15
2023-02-27T23:43:07.731Z,72.03
2023-02-27T23:45:53.460Z,72.05
2023-02-27T23:48:39.276Z,72.25
2023-02-27T23:51:24.523Z,72.28
2023-02-27T23:54:13.564Z,72.22
2023-02-27T23:56:58.944Z,72.15
2023-02-27T23:59:44.398Z,72.02
